PWSweather.com
Personal Weather Stations
Station Observations
KMOCREVE3
Whispering Hills, Creve Coeur, MO 63146

Whispering HillsCreve Coeur, MO 63146

Lat: 38.68, Lon: -90.463

Elevation: 530

Station Type: Vantage Vue

Latest ConditionsUpdated 9:00:01 AM CDT Tuesday, Sep 2, 2014
Currently Today's Max Today's Min Today's Average
Temperature 70.5°F21.4°C 70.5°F21.4°C 67.9°F19.9°C 68.9°F20.5°C
Dew Point 69.6°F20.9°C 69.8°F21.0°C 67.0°F19.4°C 68.0°F20.0°C
Winds Calm Calm 1.0 mph NW1.6 kmh NW - 0.3 mph 0.5 kmh
Wind Gusts -- 4.0 mph6.4 kmh - -
Humidity 97% 98% 97% 97%
Pressure 29.92 in1013.2 mb 29.94 in1013.9 mb 29.84 in1010.5 mb -
Precipitation - 0.45 in11.4 mm - -
Hour Temp Dew Point Humidity Winds Wind Gusts Pressure Precip Precip Rate Daily Precip Total
09:00 AM 70.5°F21.4°C 69.6°F20.9°C 97% Calm Calm -- 29.92 in1013.2 mb 0.00 in0.0 mm 0.00 in/hr0.0 mm/hr 0.45 in11.4 mm
08:50 AM 70.4°F21.3°C 69.8°F21.0°C 98% Calm Calm -- 29.91 in1012.9 mb 0.00 in0.0 mm 0.00 in/hr0.0 mm/hr 0.45 in11.4 mm
08:40 AM 70.2°F21.2°C 69.6°F20.9°C 98% Calm Calm 1.0 mph1.6 kmh 29.91 in1012.9 mb 0.00 in0.0 mm 0.00 in/hr0.0 mm/hr 0.45 in11.4 mm
08:30 AM 69.9°F21.1°C 69.3°F20.7°C 98% Calm Calm -- 29.90 in1012.5 mb 0.00 in0.0 mm 0.00 in/hr0.0 mm/hr 0.45 in11.4 mm
08:20 AM 69.8°F21.0°C 69.2°F20.7°C 98% Calm Calm -- 29.90 in1012.5 mb 0.00 in0.0 mm 0.00 in/hr0.0 mm/hr 0.45 in11.4 mm
08:10 AM 69.7°F20.9°C 69.1°F20.6°C 98% Calm Calm -- 29.90 in1012.5 mb 0.00 in0.0 mm 0.00 in/hr0.0 mm/hr 0.45 in11.4 mm
08:00 AM 69.5°F20.8°C 68.9°F20.5°C 98% Calm Calm -- 29.89 in1012.2 mb 0.00 in0.0 mm 0.00 in/hr0.0 mm/hr 0.45 in11.4 mm
07:50 AM 69.4°F20.8°C 68.8°F20.4°C 98% Calm Calm -- 29.89 in1012.2 mb 0.00 in0.0 mm 0.00 in/hr0.0 mm/hr 0.45 in11.4 mm
07:40 AM 69.2°F20.7°C 68.6°F20.3°C 98% Calm Calm -- 29.89 in1012.2 mb 0.00 in0.0 mm 0.00 in/hr0.0 mm/hr 0.45 in11.4 mm
07:30 AM 69.2°F20.7°C 68.3°F20.2°C 97% Calm Calm 1.0 mph1.6 kmh 29.89 in1012.2 mb 0.00 in0.0 mm 0.00 in/hr0.0 mm/hr 0.45 in11.4 mm
07:20 AM 69.1°F20.6°C 68.5°F20.3°C 98% Calm Calm 1.0 mph1.6 kmh 29.89 in1012.2 mb 0.00 in0.0 mm 0.00 in/hr0.0 mm/hr 0.45 in11.4 mm
07:10 AM 69.0°F20.6°C 68.1°F20.1°C 97% Calm Calm 1.0 mph1.6 kmh 29.89 in1012.2 mb 0.00 in0.0 mm 0.00 in/hr0.0 mm/hr 0.45 in11.4 mm
07:00 AM 69.1°F20.6°C 68.2°F20.1°C 97% Calm Calm 1.0 mph1.6 kmh 29.88 in1011.9 mb 0.00 in0.0 mm 0.00 in/hr0.0 mm/hr 0.45 in11.4 mm
06:50 AM 69.1°F20.6°C 68.2°F20.1°C 97% Calm Calm 2.0 mph3.2 kmh 29.88 in1011.9 mb 0.00 in0.0 mm 0.00 in/hr0.0 mm/hr 0.45 in11.4 mm
06:40 AM 69.0°F20.6°C 68.1°F20.1°C 97% 1.0 mph SE1.6 kmh SE 2.0 mph3.2 kmh 29.88 in1011.9 mb 0.00 in0.0 mm 0.00 in/hr0.0 mm/hr 0.45 in11.4 mm
06:30 AM 69.1°F20.6°C 68.5°F20.3°C 98% 1.0 mph SE1.6 kmh SE 3.0 mph4.8 kmh 29.88 in1011.9 mb 0.00 in0.0 mm 0.00 in/hr0.0 mm/hr 0.45 in11.4 mm
06:20 AM 69.0°F20.6°C 68.1°F20.1°C 97% 1.0 mph SE1.6 kmh SE 2.0 mph3.2 kmh 29.89 in1012.2 mb 0.00 in0.0 mm 0.00 in/hr0.0 mm/hr 0.45 in11.4 mm
06:10 AM 69.0°F20.6°C 68.4°F20.2°C 98% 1.0 mph SE1.6 kmh SE 3.0 mph4.8 kmh 29.88 in1011.9 mb 0.00 in0.0 mm 0.00 in/hr0.0 mm/hr 0.45 in11.4 mm
06:00 AM 68.9°F20.5°C 68.3°F20.2°C 98% 1.0 mph SE1.6 kmh SE 3.0 mph4.8 kmh 29.88 in1011.9 mb 0.00 in0.0 mm 0.00 in/hr0.0 mm/hr 0.45 in11.4 mm
05:50 AM 68.8°F20.4°C 67.9°F19.9°C 97% 1.0 mph SE1.6 kmh SE 2.0 mph3.2 kmh 29.88 in1011.9 mb 0.00 in0.0 mm 0.00 in/hr0.0 mm/hr 0.45 in11.4 mm
05:40 AM 68.8°F20.4°C 67.9°F19.9°C 97% 1.0 mph SE1.6 kmh SE 2.0 mph3.2 kmh 29.87 in1011.5 mb 0.00 in0.0 mm 0.00 in/hr0.0 mm/hr 0.45 in11.4 mm
05:30 AM 68.7°F20.4°C 67.8°F19.9°C 97% 1.0 mph SE1.6 kmh SE 2.0 mph3.2 kmh 29.86 in1011.2 mb 0.00 in0.0 mm 0.00 in/hr0.0 mm/hr 0.45 in11.4 mm
05:20 AM 68.8°F20.4°C 67.9°F19.9°C 97% 1.0 mph SE1.6 kmh SE 2.0 mph3.2 kmh 29.86 in1011.2 mb 0.00 in0.0 mm 0.00 in/hr0.0 mm/hr 0.45 in11.4 mm
05:10 AM 68.7°F20.4°C 67.8°F19.9°C 97% Calm Calm 2.0 mph3.2 kmh 29.87 in1011.5 mb 0.00 in0.0 mm 0.00 in/hr0.0 mm/hr 0.45 in11.4 mm
05:00 AM 68.9°F20.5°C 68.0°F20.0°C 97% 1.0 mph ESE1.6 kmh ESE 2.0 mph3.2 kmh 29.86 in1011.2 mb 0.00 in0.0 mm 0.00 in/hr0.0 mm/hr 0.45 in11.4 mm
04:50 AM 68.8°F20.4°C 68.2°F20.1°C 98% Calm Calm 2.0 mph3.2 kmh 29.85 in1010.8 mb 0.00 in0.0 mm 0.00 in/hr0.0 mm/hr 0.45 in11.4 mm
04:40 AM 68.7°F20.4°C 67.8°F19.9°C 97% Calm Calm 1.0 mph1.6 kmh 29.85 in1010.8 mb 0.00 in0.0 mm 0.00 in/hr0.0 mm/hr 0.45 in11.4 mm
04:30 AM 68.7°F20.4°C 67.8°F19.9°C 97% 1.0 mph SE1.6 kmh SE 2.0 mph3.2 kmh 29.85 in1010.8 mb 0.01 in0.3 mm 0.00 in/hr0.0 mm/hr 0.45 in11.4 mm
04:20 AM 68.7°F20.4°C 67.8°F19.9°C 97% Calm Calm 1.0 mph1.6 kmh 29.84 in1010.5 mb 0.03 in0.8 mm 0.00 in/hr0.0 mm/hr 0.45 in11.4 mm
04:10 AM 68.9°F20.5°C 68.0°F20.0°C 97% Calm Calm 1.0 mph1.6 kmh 29.85 in1010.8 mb 0.06 in1.5 mm 0.00 in/hr0.0 mm/hr 0.45 in11.4 mm
04:00 AM 68.8°F20.4°C 67.9°F19.9°C 97% 1.0 mph NNE1.6 kmh NNE 2.0 mph3.2 kmh 29.86 in1011.2 mb 0.10 in2.5 mm 0.00 in/hr0.0 mm/hr 0.45 in11.4 mm
03:50 AM 68.7°F20.4°C 67.8°F19.9°C 97% 1.0 mph ESE1.6 kmh ESE 2.0 mph3.2 kmh 29.86 in1011.2 mb 0.15 in3.8 mm 0.00 in/hr0.0 mm/hr 0.45 in11.4 mm
03:40 AM 68.5°F20.3°C 67.6°F19.8°C 97% Calm Calm -- 29.87 in1011.5 mb 0.17 in4.3 mm 0.00 in/hr0.0 mm/hr 0.45 in11.4 mm
03:30 AM 68.6°F20.3°C 67.7°F19.8°C 97% Calm Calm 2.0 mph3.2 kmh 29.87 in1011.5 mb 0.18 in4.6 mm 0.06 in/hr1.5 mm/hr 0.44 in11.2 mm
03:20 AM 68.7°F20.4°C 67.8°F19.9°C 97% Calm Calm 2.0 mph3.2 kmh 29.86 in1011.2 mb 0.17 in4.3 mm 0.12 in/hr3.0 mm/hr 0.42 in10.7 mm
03:10 AM 68.8°F20.4°C 67.9°F19.9°C 97% 1.0 mph ESE1.6 kmh ESE 2.0 mph3.2 kmh 29.87 in1011.5 mb 0.15 in3.8 mm 0.18 in/hr4.6 mm/hr 0.39 in9.9 mm
03:00 AM 68.7°F20.4°C 67.8°F19.9°C 97% Calm Calm 1.0 mph1.6 kmh 29.90 in1012.5 mb 0.12 in3.0 mm 0.06 in/hr1.5 mm/hr 0.35 in8.9 mm
02:50 AM 68.6°F20.3°C 67.7°F19.8°C 97% Calm Calm -- 29.92 in1013.2 mb 0.07 in1.8 mm 0.12 in/hr3.0 mm/hr 0.30 in7.6 mm
02:40 AM 68.6°F20.3°C 67.7°F19.8°C 97% 1.0 mph SE1.6 kmh SE 1.0 mph1.6 kmh 29.92 in1013.2 mb 0.05 in1.3 mm 0.00 in/hr0.0 mm/hr 0.27 in6.9 mm
02:30 AM 68.6°F20.3°C 67.7°F19.8°C 97% Calm Calm 1.0 mph1.6 kmh 29.93 in1013.5 mb 0.05 in1.3 mm 0.06 in/hr1.5 mm/hr 0.26 in6.6 mm
02:20 AM 68.6°F20.3°C 67.7°F19.8°C 97% Calm Calm 2.0 mph3.2 kmh 29.93 in1013.5 mb 0.04 in1.0 mm 0.06 in/hr1.5 mm/hr 0.25 in6.4 mm
02:10 AM 68.7°F20.4°C 67.8°F19.9°C 97% Calm Calm 1.0 mph1.6 kmh 29.93 in1013.5 mb 0.03 in0.8 mm 0.06 in/hr1.5 mm/hr 0.24 in6.1 mm
02:00 AM 68.7°F20.4°C 67.8°F19.9°C 97% Calm Calm -- 29.93 in1013.5 mb 0.02 in0.5 mm 0.00 in/hr0.0 mm/hr 0.23 in5.8 mm
01:50 AM 68.6°F20.3°C 67.7°F19.8°C 97% Calm Calm 1.0 mph1.6 kmh 29.94 in1013.9 mb 0.03 in0.8 mm 0.06 in/hr1.5 mm/hr 0.23 in5.8 mm
01:40 AM 68.6°F20.3°C 67.7°F19.8°C 97% Calm Calm 1.0 mph1.6 kmh 29.92 in1013.2 mb 0.02 in0.5 mm 0.00 in/hr0.0 mm/hr 0.22 in5.6 mm
01:30 AM 68.5°F20.3°C 67.6°F19.8°C 97% 1.0 mph NW1.6 kmh NW 3.0 mph4.8 kmh 29.92 in1013.2 mb 0.08 in2.0 mm 0.00 in/hr0.0 mm/hr 0.21 in5.3 mm
01:20 AM 68.5°F20.3°C 67.6°F19.8°C 97% Calm Calm 1.0 mph1.6 kmh 29.89 in1012.2 mb 0.08 in2.0 mm 0.00 in/hr0.0 mm/hr 0.21 in5.3 mm
01:10 AM 68.6°F20.3°C 67.7°F19.8°C 97% Calm Calm 1.0 mph1.6 kmh 29.88 in1011.9 mb 0.08 in2.0 mm 0.00 in/hr0.0 mm/hr 0.21 in5.3 mm
01:00 AM 68.4°F20.2°C 67.5°F19.7°C 97% Calm Calm -- 29.88 in1011.9 mb 0.21 in5.3 mm 0.00 in/hr0.0 mm/hr 0.21 in5.3 mm
12:50 AM 68.3°F20.2°C 67.4°F19.7°C 97% Calm Calm -- 29.88 in1011.9 mb 0.38 in9.7 mm 0.00 in/hr0.0 mm/hr 0.20 in5.1 mm
12:40 AM 68.1°F20.1°C 67.2°F19.6°C 97% Calm Calm -- 29.89 in1012.2 mb 0.38 in9.7 mm 0.06 in/hr1.5 mm/hr 0.20 in5.1 mm
12:30 AM 68.1°F20.1°C 67.2°F19.6°C 97% Calm Calm 1.0 mph1.6 kmh 29.88 in1011.9 mb 0.37 in9.4 mm 0.00 in/hr0.0 mm/hr 0.13 in3.3 mm
12:20 AM 68.1°F20.1°C 67.2°F19.6°C 97% Calm Calm 2.0 mph3.2 kmh 29.89 in1012.2 mb 0.37 in9.4 mm 0.00 in/hr0.0 mm/hr 0.13 in3.3 mm
12:10 AM 68.1°F20.1°C 67.2°F19.6°C 97% Calm Calm 2.0 mph3.2 kmh 29.89 in1012.2 mb 0.48 in12.2 mm 0.00 in/hr0.0 mm/hr 0.13 in3.3 mm
12:00 AM 67.9°F19.9°C 67.0°F19.4°C 97% 1.0 mph NW1.6 kmh NW 4.0 mph6.4 kmh 29.89 in1012.2 mb 0.65 in16.5 mm 0.00 in/hr0.0 mm/hr 0.65 in16.5 mm